createdAt,value
2018-03-04T00:00:24.360Z,-1.97
2018-03-04T00:01:22.200Z,-2.00
2018-03-04T00:02:22.767Z,-2.00
2018-03-04T00:03:20.455Z,-2.01
2018-03-04T00:04:24.775Z,-2.01
2018-03-04T00:05:22.452Z,-2.02
2018-03-04T00:06:48.976Z,-2.04
2018-03-04T00:07:47.735Z,-2.02
2018-03-04T00:08:46.594Z,-2.04
2018-03-04T00:09:48.592Z,-2.05
2018-03-04T00:10:47.887Z,-2.05
2018-03-04T00:11:45.929Z,-2.07
2018-03-04T00:13:11.265Z,-2.07
2018-03-04T00:14:15.057Z,-2.10
2018-03-04T00:15:12.249Z,-2.10
2018-03-04T00:16:37.392Z,-2.10
2018-03-04T00:17:34.347Z,-2.12
2018-03-04T00:18:34.074Z,-2.13
2018-03-04T00:19:59.017Z,-2.12
2018-03-04T00:20:58.417Z,-2.10
2018-03-04T00:22:00.680Z,-2.10
2018-03-04T00:23:02.162Z,-2.10
2018-03-04T00:23:58.823Z,-2.10
2018-03-04T00:25:03.186Z,-2.10
2018-03-04T00:25:58.858Z,-2.08
2018-03-04T00:27:00.439Z,-2.08
2018-03-04T00:28:01.136Z,-2.08
2018-03-04T00:29:01.662Z,-2.07
2018-03-04T00:30:07.703Z,-2.07
2018-03-04T00:31:30.203Z,-2.07
2018-03-04T00:32:26.402Z,-2.08
2018-03-04T00:33:28.317Z,-2.07
2018-03-04T00:34:33.893Z,-2.07
2018-03-04T00:35:27.967Z,-2.05
2018-03-04T00:36:35.920Z,-2.07
2018-03-04T00:37:28.799Z,-2.07
2018-03-04T00:38:27.870Z,-2.05
2018-03-04T00:39:31.271Z,-2.04
2018-03-04T00:40:27.241Z,-2.05
2018-03-04T00:41:54.890Z,-2.07
2018-03-04T00:42:52.132Z,-2.07
2018-03-04T00:43:58.607Z,-2.07
2018-03-04T00:44:56.124Z,-2.07
2018-03-04T00:45:56.026Z,-2.07
2018-03-04T00:46:54.572Z,-2.08
2018-03-04T00:48:27.322Z,-2.08
2018-03-04T00:49:30.715Z,-2.10
2018-03-04T00:50:26.102Z,-2.12
2018-03-04T00:51:26.451Z,-2.13
2018-03-04T00:52:25.345Z,-2.13
2018-03-04T00:53:24.639Z,-2.15
2018-03-04T00:54:27.536Z,-2.16
2018-03-04T00:55:56.287Z,-2.18
2018-03-04T00:56:56.424Z,-2.18
2018-03-04T00:57:52.312Z,-2.18
2018-03-04T00:58:55.242Z,-2.19
2018-03-04T00:59:50.587Z,-2.21
2018-03-04T01:01:20.750Z,-2.22
2018-03-04T01:02:23.159Z,-2.23
2018-03-04T01:03:22.876Z,-2.25
2018-03-04T01:04:22.797Z,-2.25
2018-03-04T01:05:23.016Z,-2.25
2018-03-04T01:06:21.040Z,-2.25
2018-03-04T01:07:21.971Z,-2.25
2018-03-04T01:08:24.552Z,-2.26
2018-03-04T01:09:20.912Z,-2.30
2018-03-04T01:10:22.212Z,-2.30
2018-03-04T01:11:18.741Z,-2.34
2018-03-04T01:12:21.988Z,-2.34
2018-03-04T01:13:28.204Z,-2.34
2018-03-04T01:14:22.429Z,-2.35
2018-03-04T01:15:23.045Z,-2.34
2018-03-04T01:17:02.439Z,-2.34
2018-03-04T01:17:53.367Z,-2.34
2018-03-04T01:18:57.453Z,-2.34
2018-03-04T01:19:54.630Z,-2.35
2018-03-04T01:20:56.672Z,-2.37
2018-03-04T01:21:59.275Z,-2.38
2018-03-04T01:22:53.920Z,-2.40
2018-03-04T01:23:53.756Z,-2.40
2018-03-04T01:24:56.017Z,-2.37
2018-03-04T01:25:55.531Z,-2.37
2018-03-04T01:26:52.860Z,-2.37
2018-03-04T01:27:58.564Z,-2.38
2018-03-04T01:28:48.973Z,-2.40
2018-03-04T01:29:53.802Z,-2.40
2018-03-04T01:30:50.830Z,-2.38
2018-03-04T01:32:12.141Z,-2.38
2018-03-04T01:33:18.593Z,-2.38
2018-03-04T01:34:18.354Z,-2.37
2018-03-04T01:35:18.021Z,-2.38
2018-03-04T01:36:14.665Z,-2.37
2018-03-04T01:37:14.747Z,-2.37
2018-03-04T01:38:12.977Z,-2.37
2018-03-04T01:39:16.080Z,-2.35
2018-03-04T01:40:13.449Z,-2.35
2018-03-04T01:41:14.067Z,-2.35
2018-03-04T01:42:22.287Z,-2.34
2018-03-04T01:43:15.117Z,-2.32
2018-03-04T01:44:14.156Z,-2.30
2018-03-04T01:45:13.234Z,-2.28
2018-03-04T01:46:12.518Z,-2.28
2018-03-04T01:47:17.339Z,-2.26
2018-03-04T01:48:12.948Z,-2.25
2018-03-04T01:49:38.470Z,-2.25
2018-03-04T01:51:10.885Z,-2.23
2018-03-04T01:52:11.220Z,-2.22
2018-03-04T01:53:13.392Z,-2.21
2018-03-04T01:54:12.231Z,-2.22
2018-03-04T01:55:11.680Z,-2.18
2018-03-04T01:56:09.815Z,-2.19
2018-03-04T01:57:08.137Z,-2.18
2018-03-04T01:58:12.636Z,-2.19
2018-03-04T01:59:12.255Z,-2.19
2018-03-04T02:00:13.948Z,-2.18
2018-03-04T02:01:09.297Z,-2.18
2018-03-04T02:02:12.732Z,-2.16
2018-03-04T02:03:38.151Z,-2.16
2018-03-04T02:04:35.154Z,-2.15
2018-03-04T02:05:34.673Z,-2.16
2018-03-04T02:06:35.658Z,-2.15
2018-03-04T02:07:39.828Z,-2.13
2018-03-04T02:08:39.599Z,-2.12
2018-03-04T02:10:05.991Z,-2.12
2018-03-04T02:10:58.292Z,-2.12
2018-03-04T02:11:58.643Z,-2.13
2018-03-04T02:13:02.314Z,-2.12
2018-03-04T02:13:57.973Z,-2.12
2018-03-04T02:14:54.903Z,-2.12
2018-03-04T02:15:56.713Z,-2.12
2018-03-04T02:16:54.610Z,-2.12
2018-03-04T02:18:26.430Z,-2.12
2018-03-04T02:19:32.680Z,-2.13
2018-03-04T02:20:32.507Z,-2.15
2018-03-04T02:21:35.869Z,-2.15
2018-03-04T02:23:19.381Z,-2.13
2018-03-04T02:24:11.023Z,-2.15
2018-03-04T02:25:14.470Z,-2.12
2018-03-04T02:26:12.739Z,-2.12
2018-03-04T02:27:14.207Z,-2.12
2018-03-04T02:28:09.959Z,-2.12
2018-03-04T02:29:09.690Z,-2.13
2018-03-04T02:30:06.997Z,-2.13
2018-03-04T02:31:11.419Z,-2.13
2018-03-04T02:32:25.810Z,-2.13
2018-03-04T02:33:07.357Z,-2.13
2018-03-04T02:34:16.593Z,-2.15
2018-03-04T02:35:13.413Z,-2.16
2018-03-04T02:37:20.750Z,-2.15
2018-03-04T02:38:54.972Z,-2.18
2018-03-04T02:39:48.093Z,-2.18
2018-03-04T02:40:48.570Z,-2.21
2018-03-04T02:41:57.597Z,-2.21
2018-03-04T02:42:48.209Z,-2.19
2018-03-04T02:43:49.318Z,-2.19
2018-03-04T02:44:49.404Z,-2.21
2018-03-04T02:45:51.479Z,-2.22
2018-03-04T02:46:46.558Z,-2.22
2018-03-04T02:47:52.348Z,-2.23
2018-03-04T02:48:49.906Z,-2.25
2018-03-04T02:50:21.111Z,-2.25
2018-03-04T02:51:13.788Z,-2.25
2018-03-04T02:52:22.238Z,-2.23
2018-03-04T02:53:14.739Z,-2.25
2018-03-04T02:54:23.937Z,-2.26
2018-03-04T02:55:13.855Z,-2.28
2018-03-04T02:56:11.950Z,-2.28
2018-03-04T02:57:18.446Z,-2.30
2018-03-04T02:58:14.590Z,-2.32
2018-03-04T02:59:19.858Z,-2.34
2018-03-04T03:00:14.659Z,-2.34
2018-03-04T03:01:17.253Z,-2.37
2018-03-04T03:02:12.662Z,-2.40
2018-03-04T03:03:14.443Z,-2.40
2018-03-04T03:04:13.320Z,-2.38
2018-03-04T03:05:17.521Z,-2.40
2018-03-04T03:06:40.810Z,-2.40
2018-03-04T03:07:41.294Z,-2.41
2018-03-04T03:08:46.425Z,-2.42
2018-03-04T03:09:43.523Z,-2.45
2018-03-04T03:11:07.723Z,-2.45
2018-03-04T03:12:04.496Z,-2.47
2018-03-04T03:13:11.671Z,-2.44
2018-03-04T03:14:09.606Z,-2.44
2018-03-04T03:15:12.133Z,-2.42
2018-03-04T03:16:10.032Z,-2.44
2018-03-04T03:17:06.989Z,-2.45
2018-03-04T03:18:15.800Z,-2.47
2018-03-04T03:19:15.239Z,-2.47
2018-03-04T03:21:45.883Z,-2.52
2018-03-04T03:23:14.457Z,-2.53
2018-03-04T03:24:11.811Z,-2.55
2018-03-04T03:25:18.354Z,-2.52
2018-03-04T03:26:13.205Z,-2.52
2018-03-04T03:27:14.456Z,-2.50
2018-03-04T03:28:18.325Z,-2.50
2018-03-04T03:29:27.914Z,-2.50
2018-03-04T03:30:19.839Z,-2.48
2018-03-04T03:31:21.066Z,-2.50
2018-03-04T03:32:25.857Z,-2.50
2018-03-04T03:33:45.531Z,-2.48
2018-03-04T03:35:59.618Z,-2.44
2018-03-04T03:36:55.402Z,-2.45
2018-03-04T03:37:51.527Z,-2.42
2018-03-04T03:38:50.719Z,-2.42
2018-03-04T03:39:48.854Z,-2.41
2018-03-04T03:41:01.700Z,-2.41
2018-03-04T03:41:53.885Z,-2.40
2018-03-04T03:42:49.537Z,-2.40
2018-03-04T03:43:54.139Z,-2.38
2018-03-04T03:44:52.275Z,-2.38
2018-03-04T03:46:18.145Z,-2.35
2018-03-04T03:47:44.318Z,-2.35
2018-03-04T03:48:57.516Z,-2.38
2018-03-04T03:49:48.365Z,-2.37
2018-03-04T03:50:52.443Z,-2.38
2018-03-04T03:51:49.927Z,-2.37
2018-03-04T03:52:49.220Z,-2.35
2018-03-04T03:53:53.075Z,-2.37
2018-03-04T03:54:55.086Z,-2.37
2018-03-04T03:55:51.268Z,-2.38
2018-03-04T03:57:03.877Z,-2.35
2018-03-04T03:57:40.493Z,-2.35
2018-03-04T03:58:40.866Z,-2.35
2018-03-04T03:59:41.969Z,-2.35
2018-03-04T04:01:02.030Z,-2.32
2018-03-04T04:02:02.832Z,-2.34
2018-03-04T04:03:23.582Z,-2.30
2018-03-04T04:04:24.424Z,-2.26
2018-03-04T04:05:24.124Z,-2.26
2018-03-04T04:07:08.547Z,-2.25
2018-03-04T04:08:22.686Z,-2.22
2018-03-04T04:09:09.070Z,-2.22
2018-03-04T04:10:09.033Z,-2.21
2018-03-04T04:11:31.443Z,-2.18
2018-03-04T04:12:31.991Z,-2.16
2018-03-04T04:13:31.903Z,-2.18
2018-03-04T04:14:31.230Z,-2.18
2018-03-04T04:15:32.012Z,-2.16
2018-03-04T04:16:31.589Z,-2.18
2018-03-04T04:17:32.441Z,-2.16
2018-03-04T04:18:32.406Z,-2.18
2018-03-04T04:19:32.417Z,-2.16
2018-03-04T04:20:31.896Z,-2.16
2018-03-04T04:21:31.732Z,-2.18
2018-03-04T04:22:32.126Z,-2.19
2018-03-04T04:23:53.741Z,-2.21
2018-03-04T04:24:54.558Z,-2.21
2018-03-04T04:25:54.226Z,-2.21
2018-03-04T04:26:53.768Z,-2.22
2018-03-04T04:27:54.164Z,-2.23
2018-03-04T04:28:54.168Z,-2.23
2018-03-04T04:29:53.779Z,-2.23
2018-03-04T04:30:54.164Z,-2.23
2018-03-04T04:31:53.665Z,-2.23
2018-03-04T04:32:54.141Z,-2.23
2018-03-04T04:33:53.597Z,-2.25
2018-03-04T04:34:54.428Z,-2.25
2018-03-04T04:35:53.902Z,-2.26
2018-03-04T04:36:54.293Z,-2.26
2018-03-04T04:37:53.870Z,-2.28
2018-03-04T04:38:54.080Z,-2.30
2018-03-04T04:39:53.533Z,-2.30
2018-03-04T04:40:54.483Z,-2.30
2018-03-04T04:41:54.220Z,-2.30
2018-03-04T04:42:54.154Z,-2.30
2018-03-04T04:43:53.654Z,-2.28
2018-03-04T04:44:54.258Z,-2.26
2018-03-04T04:45:54.158Z,-2.26
2018-03-04T04:46:54.081Z,-2.26
2018-03-04T04:47:54.095Z,-2.28
2018-03-04T04:49:35.993Z,-2.28
2018-03-04T04:50:36.515Z,-2.26
2018-03-04T04:51:58.130Z,-2.28
2018-03-04T04:52:58.706Z,-2.28
2018-03-04T04:53:58.266Z,-2.26
2018-03-04T04:54:59.030Z,-2.26
2018-03-04T04:55:58.358Z,-2.25
2018-03-04T04:57:19.066Z,-2.23
2018-03-04T04:58:19.468Z,-2.23
2018-03-04T04:59:20.231Z,-2.22
2018-03-04T05:00:20.113Z,-2.22
2018-03-04T05:01:19.497Z,-2.21
2018-03-04T05:02:20.179Z,-2.19
2018-03-04T05:03:20.375Z,-2.19
2018-03-04T05:04:20.173Z,-2.16
2018-03-04T05:05:19.899Z,-2.16
2018-03-04T05:06:19.573Z,-2.16
2018-03-04T05:07:20.430Z,-2.15
2018-03-04T05:08:20.455Z,-2.13
2018-03-04T05:09:19.700Z,-2.12
2018-03-04T05:10:20.374Z,-2.10
2018-03-04T05:11:41.434Z,-2.07
2018-03-04T05:13:03.895Z,-2.05
2018-03-04T05:14:04.734Z,-2.04
2018-03-04T05:15:04.642Z,-2.04
2018-03-04T05:16:04.481Z,-2.04
2018-03-04T05:17:04.326Z,-2.04
2018-03-04T05:18:04.158Z,-2.04
2018-03-04T05:19:04.126Z,-2.02
2018-03-04T05:20:04.016Z,-2.01
2018-03-04T05:21:04.886Z,-2.02
2018-03-04T05:22:04.727Z,-2.02
2018-03-04T05:23:04.466Z,-2.01
2018-03-04T05:24:25.627Z,-2.00
2018-03-04T05:25:26.064Z,-2.00
2018-03-04T05:26:46.998Z,-2.00
2018-03-04T05:27:47.459Z,-2.01
2018-03-04T05:28:46.781Z,-1.98
2018-03-04T05:29:46.994Z,-1.98
2018-03-04T05:30:47.318Z,-1.97
2018-03-04T05:31:46.904Z,-1.98
2018-03-04T05:32:47.283Z,-1.97
2018-03-04T05:33:47.169Z,-1.97
2018-03-04T05:34:46.639Z,-1.97
2018-03-04T05:35:47.442Z,-1.97
2018-03-04T05:37:29.613Z,-1.94
2018-03-04T05:38:30.267Z,-1.94
2018-03-04T05:39:30.228Z,-1.92
2018-03-04T05:40:30.161Z,-1.92
2018-03-04T05:41:29.497Z,-1.89
2018-03-04T05:42:30.397Z,-1.87
2018-03-04T05:43:51.079Z,-1.87
2018-03-04T05:44:51.913Z,-1.87
2018-03-04T05:46:13.154Z,-1.86
2018-03-04T05:47:14.143Z,-1.84
2018-03-04T05:48:44.034Z,-1.84
2018-03-04T05:49:44.622Z,-1.86
2018-03-04T05:50:44.679Z,-1.83
2018-03-04T05:51:44.390Z,-1.82
2018-03-04T05:52:44.127Z,-1.82
2018-03-04T05:53:44.125Z,-1.79
2018-03-04T05:54:44.422Z,-1.79
2018-03-04T05:56:05.401Z,-1.77
2018-03-04T05:57:05.977Z,-1.77
2018-03-04T05:58:05.302Z,-1.76
2018-03-04T05:59:05.727Z,-1.72
2018-03-04T06:00:06.480Z,-1.72
2018-03-04T06:01:06.120Z,-1.71
2018-03-04T06:02:06.003Z,-1.71
2018-03-04T06:03:27.511Z,-1.68
2018-03-04T06:04:27.853Z,-1.69
2018-03-04T06:05:27.264Z,-1.69
2018-03-04T06:06:28.310Z,-1.68
2018-03-04T06:07:28.256Z,-1.65
2018-03-04T06:08:27.967Z,-1.66
2018-03-04T06:09:27.857Z,-1.65
2018-03-04T06:10:27.686Z,-1.65
2018-03-04T06:11:28.149Z,-1.64
2018-03-04T06:12:27.667Z,-1.65
2018-03-04T06:13:28.546Z,-1.65
2018-03-04T06:14:28.358Z,-1.64
2018-03-04T06:15:28.155Z,-1.64
2018-03-04T06:16:28.197Z,-1.62
2018-03-04T06:17:27.768Z,-1.62
2018-03-04T06:18:27.613Z,-1.62
2018-03-04T06:19:28.408Z,-1.61
2018-03-04T06:20:49.936Z,-1.61
2018-03-04T06:21:50.683Z,-1.59
2018-03-04T06:22:50.576Z,-1.56
2018-03-04T06:23:50.455Z,-1.58
2018-03-04T06:24:50.384Z,-1.56
2018-03-04T06:25:50.212Z,-1.56
2018-03-04T06:27:15.197Z,-1.54
2018-03-04T06:28:12.754Z,-1.54
2018-03-04T06:29:13.070Z,-1.54
2018-03-04T06:30:14.368Z,-1.51
2018-03-04T06:31:15.487Z,-1.50
2018-03-04T06:32:14.717Z,-1.50
2018-03-04T06:33:18.491Z,-1.48
2018-03-04T06:34:13.283Z,-1.47
2018-03-04T06:35:12.552Z,-1.46
2018-03-04T06:36:35.809Z,-1.46
2018-03-04T06:37:36.171Z,-1.44
2018-03-04T06:39:19.775Z,-1.44
2018-03-04T06:40:18.327Z,-1.43
2018-03-04T06:41:39.137Z,-1.41
2018-03-04T06:42:39.926Z,-1.37
2018-03-04T06:43:39.449Z,-1.38
2018-03-04T06:44:39.907Z,-1.33
2018-03-04T06:45:39.433Z,-1.32
2018-03-04T06:47:02.190Z,-1.30
2018-03-04T06:48:24.407Z,-1.26
2018-03-04T06:49:24.856Z,-1.26
2018-03-04T06:50:27.710Z,-1.26
2018-03-04T06:51:25.304Z,-1.22
2018-03-04T06:52:48.899Z,-1.20
2018-03-04T06:53:50.092Z,-1.17
2018-03-04T06:54:48.969Z,-1.12
2018-03-04T06:55:50.601Z,-1.09
2018-03-04T06:56:48.724Z,-1.05
2018-03-04T06:57:48.559Z,-1.05
2018-03-04T06:58:49.172Z,-1.04
2018-03-04T06:59:49.192Z,-1.04
2018-03-04T07:01:33.320Z,-0.97
2018-03-04T07:02:34.321Z,-0.91
2018-03-04T07:03:33.720Z,-0.90
2018-03-04T07:04:34.941Z,-0.90
2018-03-04T07:05:35.780Z,-0.90
2018-03-04T07:06:33.835Z,-0.85
2018-03-04T07:07:33.972Z,-0.83
2018-03-04T07:08:33.779Z,-0.82
2018-03-04T07:09:33.927Z,-0.77
2018-03-04T07:10:56.705Z,-0.75
2018-03-04T07:11:57.480Z,-0.72
2018-03-04T07:12:56.935Z,-0.72
2018-03-04T07:13:57.117Z,-0.70
2018-03-04T07:14:56.977Z,-0.67
2018-03-04T07:15:56.569Z,-0.67
2018-03-04T07:17:19.266Z,-0.65
2018-03-04T07:18:19.005Z,-0.64
2018-03-04T07:19:18.860Z,-0.65
2018-03-04T07:20:21.038Z,-0.65
2018-03-04T07:21:18.859Z,-0.64
2018-03-04T07:22:20.223Z,-0.65
2018-03-04T07:23:19.549Z,-0.65
2018-03-04T07:24:19.350Z,-0.65
2018-03-04T07:25:18.939Z,-0.64
2018-03-04T07:26:20.074Z,-0.61
2018-03-04T07:27:19.779Z,-0.61
2018-03-04T07:28:19.680Z,-0.59
2018-03-04T07:29:20.788Z,-0.54
2018-03-04T07:30:19.468Z,-0.52
2018-03-04T07:31:19.655Z,-0.47
2018-03-04T07:32:20.056Z,-0.44
2018-03-04T07:33:19.126Z,-0.41
2018-03-04T07:34:19.155Z,-0.36
2018-03-04T07:35:19.806Z,-0.35
2018-03-04T07:36:18.834Z,-0.29
2018-03-04T07:37:18.567Z,-0.28
2018-03-04T07:38:20.195Z,-0.26
2018-03-04T07:39:19.763Z,-0.25
2018-03-04T07:40:18.929Z,-0.21
2018-03-04T07:41:18.534Z,-0.20
2018-03-04T07:42:20.456Z,-0.14
2018-03-04T07:43:20.254Z,-0.07
2018-03-04T07:44:18.562Z,0.00
2018-03-04T07:45:19.533Z,0.04
2018-03-04T07:46:19.534Z,0.03
2018-03-04T07:47:19.661Z,0.04
2018-03-04T07:48:18.587Z,0.05
2018-03-04T07:49:18.925Z,0.11
2018-03-04T07:50:19.122Z,0.15
2018-03-04T07:51:18.578Z,0.21
2018-03-04T07:52:20.614Z,0.25
2018-03-04T07:53:19.668Z,0.31
2018-03-04T07:54:19.540Z,0.36
2018-03-04T07:55:20.569Z,0.36
2018-03-04T07:56:22.595Z,0.43
2018-03-04T07:57:19.385Z,0.55
2018-03-04T07:58:19.211Z,0.56
2018-03-04T07:59:20.174Z,0.58
2018-03-04T08:00:20.556Z,0.58
2018-03-04T08:01:19.485Z,0.68
2018-03-04T08:03:04.206Z,0.73
2018-03-04T08:04:04.622Z,0.76
2018-03-04T08:05:04.378Z,0.81
2018-03-04T08:06:03.957Z,0.84
2018-03-04T08:07:06.369Z,0.87
2018-03-04T08:08:48.202Z,0.81
2018-03-04T08:09:50.254Z,0.77
2018-03-04T08:11:10.885Z,0.76
2018-03-04T08:12:10.777Z,0.80
2018-03-04T08:13:10.796Z,0.80
2018-03-04T08:14:10.288Z,0.83
2018-03-04T08:15:11.513Z,0.86
2018-03-04T08:16:12.016Z,0.94
2018-03-04T08:17:32.452Z,0.98
2018-03-04T08:18:32.981Z,1.01
2018-03-04T08:19:32.597Z,1.05
2018-03-04T08:20:33.186Z,1.13
2018-03-04T08:21:32.655Z,1.19
2018-03-04T08:24:02.193Z,1.19
2018-03-04T08:25:03.106Z,1.30
2018-03-04T08:26:02.897Z,1.28
2018-03-04T08:27:02.902Z,1.30
2018-03-04T08:28:02.432Z,1.38
2018-03-04T08:29:02.581Z,1.40
2018-03-04T08:30:02.738Z,1.44
2018-03-04T08:31:04.477Z,1.53
2018-03-04T08:32:02.906Z,1.60
2018-03-04T08:33:03.181Z,1.59
2018-03-04T08:34:03.094Z,1.62
2018-03-04T08:35:03.318Z,1.60
2018-03-04T08:36:13.866Z,1.62
2018-03-04T08:37:02.631Z,1.59
2018-03-04T08:38:03.509Z,1.59
2018-03-04T08:39:49.823Z,1.77
2018-03-04T08:40:52.395Z,1.78
2018-03-04T08:41:57.170Z,1.80
2018-03-04T08:42:52.191Z,1.88
2018-03-04T08:43:49.742Z,1.89
2018-03-04T08:44:51.368Z,1.95
2018-03-04T08:45:49.547Z,2.08
2018-03-04T08:46:49.977Z,2.14
2018-03-04T08:47:51.507Z,2.18
2018-03-04T08:48:51.168Z,2.24
2018-03-04T08:49:49.310Z,2.26
2018-03-04T08:51:40.080Z,2.43
2018-03-04T08:52:39.600Z,2.42
2018-03-04T08:53:41.743Z,2.36
2018-03-04T08:55:04.691Z,2.38
2018-03-04T08:56:05.536Z,2.43
2018-03-04T08:57:03.225Z,2.43
2018-03-04T08:58:22.767Z,2.50
2018-03-04T08:59:43.909Z,2.64
2018-03-04T09:00:45.045Z,2.68
2018-03-04T09:02:06.779Z,2.62
2018-03-04T09:03:31.858Z,2.61
2018-03-04T09:04:52.545Z,2.71
2018-03-04T09:05:52.374Z,2.77
2018-03-04T09:07:20.337Z,2.79
2018-03-04T09:07:54.121Z,2.86
2018-03-04T09:08:55.303Z,2.95
2018-03-04T09:10:15.559Z,3.08
2018-03-04T09:11:16.022Z,3.11
2018-03-04T09:12:38.473Z,3.14
2018-03-04T09:14:01.296Z,3.22
2018-03-04T09:15:01.460Z,3.29
2018-03-04T09:16:01.925Z,3.28
2018-03-04T09:17:00.643Z,3.36
2018-03-04T09:18:23.539Z,3.34
2018-03-04T09:19:24.093Z,3.29
2018-03-04T09:20:23.160Z,3.19
2018-03-04T09:21:22.829Z,3.14
2018-03-04T09:22:46.069Z,3.21
2018-03-04T09:24:11.624Z,3.32
2018-03-04T09:25:11.967Z,3.32
2018-03-04T09:26:36.065Z,3.29
2018-03-04T09:27:34.757Z,3.34
2018-03-04T09:28:35.673Z,3.36
2018-03-04T09:29:34.780Z,3.29
2018-03-04T09:30:33.818Z,3.23
2018-03-04T09:31:58.841Z,3.31
2018-03-04T09:33:08.503Z,3.31
2018-03-04T09:33:58.608Z,3.34
2018-03-04T09:34:58.893Z,3.37
2018-03-04T09:35:57.780Z,3.41
2018-03-04T09:36:59.880Z,3.44
2018-03-04T09:37:58.957Z,3.51
2018-03-04T09:38:58.774Z,3.51
2018-03-04T09:39:58.958Z,3.51
2018-03-04T09:40:58.216Z,3.55
2018-03-04T09:41:57.982Z,3.60
2018-03-04T09:42:58.105Z,3.66
2018-03-04T09:43:57.842Z,3.68
2018-03-04T09:44:59.921Z,3.65
2018-03-04T09:46:01.931Z,3.59
2018-03-04T09:47:20.699Z,3.62
2018-03-04T09:48:22.131Z,3.58
2018-03-04T09:49:21.426Z,3.53
2018-03-04T09:50:21.404Z,3.50
2018-03-04T09:51:42.138Z,3.47
2018-03-04T09:52:42.358Z,3.56
2018-03-04T09:53:43.214Z,3.58
2018-03-04T09:54:42.187Z,3.55
2018-03-04T09:55:43.216Z,3.63
2018-03-04T09:56:42.272Z,3.74
2018-03-04T09:57:42.500Z,3.94
2018-03-04T09:58:43.436Z,4.04
2018-03-04T09:59:42.303Z,4.12
2018-03-04T10:00:42.427Z,4.16
2018-03-04T10:01:42.687Z,4.22
2018-03-04T10:02:43.556Z,4.23
2018-03-04T10:03:42.809Z,4.19
2018-03-04T10:04:42.613Z,4.24
2018-03-04T10:05:42.573Z,4.16
2018-03-04T10:06:42.796Z,4.12
2018-03-04T10:07:44.516Z,4.13
2018-03-04T10:08:42.625Z,4.04
2018-03-04T10:09:43.530Z,4.04
2018-03-04T10:10:42.330Z,4.04
2018-03-04T10:11:43.142Z,4.02
2018-03-04T10:12:42.194Z,3.96
2018-03-04T10:13:43.067Z,4.02
2018-03-04T10:14:41.812Z,4.17
2018-03-04T10:15:43.021Z,4.37
2018-03-04T10:16:42.196Z,4.48
2018-03-04T10:17:41.900Z,4.50
2018-03-04T10:18:43.179Z,4.58
2018-03-04T10:19:43.221Z,4.70
2018-03-04T10:20:42.359Z,4.84
2018-03-04T10:21:42.051Z,5.02
2018-03-04T10:22:41.988Z,5.00
2018-03-04T10:23:43.643Z,4.96
2018-03-04T10:25:05.207Z,5.10
2018-03-04T10:26:06.856Z,5.10
2018-03-04T10:27:06.426Z,5.17
2018-03-04T10:28:11.646Z,5.29
2018-03-04T10:29:06.032Z,5.35
2018-03-04T10:30:06.020Z,5.26
2018-03-04T10:31:06.152Z,5.28
2018-03-04T10:32:06.341Z,5.41
2018-03-04T10:33:05.766Z,5.43
2018-03-04T10:34:06.029Z,5.44
2018-03-04T10:35:07.418Z,5.36
2018-03-04T10:36:04.954Z,5.32
2018-03-04T10:37:10.463Z,5.32
2018-03-04T10:38:05.925Z,5.36
2018-03-04T10:39:28.445Z,5.36
2018-03-04T10:40:29.498Z,5.41
2018-03-04T10:41:50.483Z,5.43
2018-03-04T10:42:51.326Z,5.33
2018-03-04T10:43:51.509Z,5.43
2018-03-04T10:45:57.461Z,5.54
2018-03-04T10:46:58.291Z,5.56
2018-03-04T10:47:58.840Z,5.62
2018-03-04T10:48:58.780Z,5.56
2018-03-04T10:49:58.141Z,5.53
2018-03-04T10:50:59.007Z,5.44
2018-03-04T10:51:58.541Z,5.47
2018-03-04T10:52:57.787Z,5.57
2018-03-04T10:54:02.013Z,5.69
2018-03-04T10:54:58.173Z,5.97
2018-03-04T10:55:58.823Z,5.98
2018-03-04T10:56:58.246Z,6.02
2018-03-04T10:57:57.950Z,5.99
2018-03-04T10:58:57.987Z,5.98
2018-03-04T11:00:00.190Z,6.01
2018-03-04T11:00:57.443Z,5.99
2018-03-04T11:01:59.086Z,6.01
2018-03-04T11:03:19.709Z,5.91
2018-03-04T11:04:43.377Z,5.86
2018-03-04T11:05:45.913Z,5.80
2018-03-04T11:06:46.262Z,5.68
2018-03-04T11:07:43.239Z,5.57
2018-03-04T11:08:44.030Z,5.51
2018-03-04T11:09:43.847Z,5.48
2018-03-04T11:10:42.879Z,5.54
2018-03-04T11:11:43.081Z,5.75
2018-03-04T11:12:43.104Z,5.94
2018-03-04T11:13:43.064Z,5.94
2018-03-04T11:14:42.637Z,5.93
2018-03-04T11:15:43.560Z,5.99
2018-03-04T11:16:43.100Z,6.09
2018-03-04T11:17:51.146Z,6.11
2018-03-04T11:18:48.660Z,6.14
2018-03-04T11:19:46.803Z,6.27
2018-03-04T11:20:44.499Z,6.35
2018-03-04T11:21:44.556Z,6.42
2018-03-04T11:23:07.262Z,6.56
2018-03-04T11:24:33.688Z,6.59
2018-03-04T11:25:33.622Z,6.64
2018-03-04T11:26:33.357Z,6.66
2018-03-04T11:27:33.230Z,6.74
2018-03-04T11:28:35.486Z,6.70
2018-03-04T11:29:57.181Z,6.72
2018-03-04T11:30:56.958Z,6.64
2018-03-04T11:32:21.327Z,6.52
2018-03-04T11:33:21.865Z,6.42
2018-03-04T11:34:43.822Z,6.19
2018-03-04T11:37:16.646Z,6.26
2018-03-04T11:38:38.533Z,6.20
2018-03-04T11:39:52.936Z,6.33
2018-03-04T11:40:43.453Z,6.45
2018-03-04T11:42:07.066Z,6.45
2018-03-04T11:45:29.887Z,6.45
2018-03-04T11:46:29.373Z,6.51
2018-03-04T11:48:53.706Z,6.88
2018-03-04T11:50:08.850Z,7.25
2018-03-04T11:51:00.332Z,7.54
2018-03-04T11:52:06.614Z,7.83
2018-03-04T11:53:18.502Z,8.00
2018-03-04T11:54:22.790Z,7.98
2018-03-04T11:55:47.869Z,8.36
2018-03-04T11:56:55.349Z,8.36
2018-03-04T11:57:57.100Z,8.48
2018-03-04T11:58:49.356Z,8.51
2018-03-04T11:59:56.806Z,8.69
2018-03-04T12:00:51.534Z,8.94
2018-03-04T12:01:53.680Z,9.32
2018-03-04T12:02:54.003Z,9.41
2018-03-04T12:03:56.097Z,9.79
2018-03-04T12:04:57.996Z,10.54
2018-03-04T12:05:52.000Z,11.18
2018-03-04T12:06:47.611Z,11.77
2018-03-04T12:07:52.465Z,12.24
2018-03-04T12:09:21.862Z,13.01
2018-03-04T12:10:17.346Z,13.37
2018-03-04T12:11:22.073Z,13.49
2018-03-04T12:12:17.748Z,13.63
2018-03-04T12:13:47.457Z,13.86
2018-03-04T12:15:25.969Z,13.90
2018-03-04T12:16:10.154Z,14.10
2018-03-04T12:17:13.699Z,13.78
2018-03-04T12:19:46.867Z,13.35
2018-03-04T12:20:42.647Z,13.57
2018-03-04T12:21:41.604Z,13.67
2018-03-04T12:22:43.006Z,13.96
2018-03-04T12:23:46.724Z,14.20
2018-03-04T12:25:10.944Z,14.51
2018-03-04T12:26:05.811Z,14.51
2018-03-04T12:27:08.101Z,14.29
2018-03-04T12:28:04.840Z,14.07
2018-03-04T12:29:06.435Z,14.10
2018-03-04T12:30:37.247Z,14.50
2018-03-04T12:31:35.909Z,14.77
2018-03-04T12:32:50.587Z,14.68
2018-03-04T12:33:46.381Z,14.66
2018-03-04T12:34:36.361Z,14.47
2018-03-04T12:35:36.208Z,13.99
2018-03-04T12:36:34.601Z,13.46
2018-03-04T12:37:32.934Z,13.27
2018-03-04T12:38:33.168Z,13.12
2018-03-04T12:39:33.630Z,13.09
2018-03-04T12:40:33.148Z,12.86
2018-03-04T12:41:33.843Z,12.67
2018-03-04T12:42:33.252Z,12.45
2018-03-04T12:43:37.969Z,12.36
2018-03-04T12:45:23.433Z,12.72
2018-03-04T12:46:24.359Z,13.00
2018-03-04T12:47:26.978Z,13.38
2018-03-04T12:48:26.467Z,13.59
2018-03-04T12:49:25.858Z,13.97
2018-03-04T12:50:24.014Z,14.40
2018-03-04T12:51:23.892Z,14.50
2018-03-04T12:52:26.479Z,14.36
2018-03-04T12:53:23.509Z,14.22
2018-03-04T12:54:24.299Z,14.33
2018-03-04T12:55:22.807Z,14.48
2018-03-04T12:56:24.408Z,14.50
2018-03-04T12:57:28.615Z,14.48
2018-03-04T12:58:25.528Z,14.44
2018-03-04T12:59:22.720Z,14.44
2018-03-04T13:00:24.064Z,14.48
2018-03-04T13:01:22.050Z,14.40
2018-03-04T13:02:44.753Z,14.12
2018-03-04T13:03:44.765Z,14.26
2018-03-04T13:04:45.098Z,14.03
2018-03-04T13:05:50.132Z,13.97
2018-03-04T13:06:45.122Z,14.10
2018-03-04T13:07:45.100Z,14.23
2018-03-04T13:09:16.014Z,14.05
2018-03-04T13:10:10.766Z,13.87
2018-03-04T13:11:09.843Z,13.72
2018-03-04T13:12:10.035Z,13.56
2018-03-04T13:13:09.746Z,13.57
2018-03-04T13:14:10.175Z,13.77
2018-03-04T13:15:32.402Z,13.52
2018-03-04T13:16:32.746Z,13.53
2018-03-04T13:17:33.746Z,13.78
2018-03-04T13:18:56.242Z,13.86
2018-03-04T13:19:55.261Z,13.62
2018-03-04T13:20:54.988Z,13.57
2018-03-04T13:21:56.039Z,13.74
2018-03-04T13:22:57.531Z,13.77
2018-03-04T13:23:55.433Z,13.54
2018-03-04T13:24:55.864Z,13.46
2018-03-04T13:25:54.954Z,13.57
2018-03-04T13:26:56.420Z,13.52
2018-03-04T13:27:54.643Z,13.46
2018-03-04T13:28:54.838Z,13.42
2018-03-04T13:29:55.044Z,13.25
2018-03-04T13:31:17.444Z,13.08
2018-03-04T13:32:17.798Z,13.18
2018-03-04T13:33:17.969Z,13.41
2018-03-04T13:34:17.033Z,13.60
2018-03-04T13:35:18.959Z,13.42
2018-03-04T13:36:17.796Z,13.30
2018-03-04T13:37:18.389Z,13.27
2018-03-04T13:38:17.119Z,13.39
2018-03-04T13:39:20.164Z,13.53
2018-03-04T13:40:17.784Z,13.67
2018-03-04T13:43:13.301Z,13.62
2018-03-04T13:44:10.881Z,13.72
2018-03-04T13:45:32.708Z,13.72
2018-03-04T13:46:33.475Z,13.70
2018-03-04T13:47:33.858Z,13.83
2018-03-04T13:48:33.068Z,13.59
2018-03-04T13:49:32.784Z,13.62
2018-03-04T13:50:34.010Z,13.63
2018-03-04T13:51:33.582Z,13.81
2018-03-04T13:52:33.307Z,13.99
2018-03-04T13:53:33.016Z,14.20
2018-03-04T13:54:54.484Z,13.87
2018-03-04T13:55:54.166Z,13.79
2018-03-04T13:56:53.925Z,13.79
2018-03-04T13:57:54.602Z,13.83
2018-03-04T13:58:54.386Z,13.85
2018-03-04T13:59:54.263Z,13.85
2018-03-04T14:00:54.540Z,13.74